createdAt,value
2018-08-17T00:00:03.988Z,100164.21
2018-08-17T00:01:09.831Z,100165.00
2018-08-17T00:02:15.763Z,100166.46
2018-08-17T00:03:22.438Z,100159.39
2018-08-17T00:04:28.712Z,100165.56
2018-08-17T00:05:35.021Z,100163.86
2018-08-17T00:06:41.610Z,100168.33
2018-08-17T00:07:47.748Z,100160.44
2018-08-17T00:08:54.202Z,100155.82
2018-08-17T00:10:00.647Z,100157.06
2018-08-17T00:11:06.672Z,100159.86
2018-08-17T00:12:12.658Z,100153.22
2018-08-17T00:13:18.727Z,100155.84
2018-08-17T00:14:24.690Z,100158.87
2018-08-17T00:15:30.834Z,100157.27
2018-08-17T00:16:36.944Z,100152.31
2018-08-17T00:17:43.261Z,100152.57
2018-08-17T00:18:49.384Z,100155.34
2018-08-17T00:19:55.970Z,100151.25
2018-08-17T00:21:02.310Z,100159.19
2018-08-17T00:22:08.252Z,100146.41
2018-08-17T00:23:14.292Z,100147.23
2018-08-17T00:24:20.581Z,100156.00
2018-08-17T00:25:26.558Z,100153.03
2018-08-17T00:26:32.429Z,100153.40
2018-08-17T00:27:38.744Z,100153.83
2018-08-17T00:28:45.117Z,100150.50
2018-08-17T00:29:51.765Z,100146.76
2018-08-17T00:30:57.714Z,100144.84
2018-08-17T00:32:03.703Z,100151.03
2018-08-17T00:33:09.735Z,100150.21
2018-08-17T00:34:16.156Z,100150.27
2018-08-17T00:35:22.508Z,100148.22
2018-08-17T00:36:28.104Z,100145.80
2018-08-17T00:37:34.488Z,100138.97
2018-08-17T00:38:40.836Z,100141.64
2018-08-17T00:39:47.139Z,100141.31
2018-08-17T00:40:53.109Z,100140.42
2018-08-17T00:41:59.113Z,100143.98
2018-08-17T00:43:05.252Z,100141.31
2018-08-17T00:44:11.655Z,100138.30
2018-08-17T00:45:23.082Z,100142.33
2018-08-17T00:46:29.419Z,100147.72
2018-08-17T00:47:35.963Z,100145.36
2018-08-17T00:48:41.892Z,100146.31
2018-08-17T00:49:49.015Z,100145.78
2018-08-17T00:50:55.240Z,100142.63
2018-08-17T00:52:01.657Z,100148.55
2018-08-17T00:53:07.305Z,100144.20
2018-08-17T00:54:13.656Z,100148.28
2018-08-17T00:55:19.877Z,100146.13
2018-08-17T00:56:26.248Z,100157.47
2018-08-17T00:57:32.792Z,100149.36
2018-08-17T00:58:39.177Z,100147.72
2018-08-17T00:59:45.428Z,100153.94
2018-08-17T01:00:51.735Z,100147.83
2018-08-17T01:02:02.003Z,100153.90
2018-08-17T01:03:07.628Z,100149.78
2018-08-17T01:04:14.021Z,100152.93
2018-08-17T01:05:21.568Z,100155.77
2018-08-17T01:06:27.814Z,100154.06
2018-08-17T01:07:34.314Z,100155.34
2018-08-17T01:08:40.671Z,100157.20
2018-08-17T01:09:46.615Z,100152.87
2018-08-17T01:10:52.644Z,100151.78
2018-08-17T01:11:58.955Z,100149.22
2018-08-17T01:13:04.227Z,100153.30
2018-08-17T01:14:10.310Z,100155.29
2018-08-17T01:15:16.560Z,100150.27
2018-08-17T01:16:22.569Z,100155.16
2018-08-17T01:17:29.016Z,100154.63
2018-08-17T01:18:34.651Z,100157.34
2018-08-17T01:19:40.795Z,100151.17
2018-08-17T01:20:47.199Z,100158.38
2018-08-17T01:21:53.639Z,100148.52
2018-08-17T01:22:59.963Z,100158.84
2018-08-17T01:24:05.578Z,100151.80
2018-08-17T01:25:12.272Z,100157.38
2018-08-17T01:26:18.597Z,100152.93
2018-08-17T01:27:24.867Z,100150.33
2018-08-17T01:28:31.040Z,100151.52
2018-08-17T01:29:37.307Z,100147.83
2018-08-17T01:30:43.613Z,100152.33
2018-08-17T01:31:49.596Z,100156.22
2018-08-17T01:32:56.129Z,100153.00
2018-08-17T01:34:02.832Z,100147.88
2018-08-17T01:35:09.188Z,100149.50
2018-08-17T01:36:15.561Z,100152.23
2018-08-17T01:37:22.612Z,100151.44
2018-08-17T01:38:29.043Z,100153.95
2018-08-17T01:39:35.324Z,100154.75
2018-08-17T01:40:41.584Z,100157.03
2018-08-17T01:41:47.952Z,100153.34
2018-08-17T01:42:54.269Z,100154.28
2018-08-17T01:44:00.755Z,100147.04
2018-08-17T01:45:06.656Z,100145.52
2018-08-17T01:46:12.999Z,100149.58
2018-08-17T01:47:19.347Z,100148.78
2018-08-17T01:48:25.380Z,100152.29
2018-08-17T01:49:31.789Z,100152.44
2018-08-17T01:50:38.044Z,100153.33
2018-08-17T01:51:44.359Z,100152.23
2018-08-17T01:52:51.376Z,100153.14
2018-08-17T01:53:57.594Z,100150.30
2018-08-17T01:55:03.648Z,100151.20
2018-08-17T01:56:10.218Z,100155.08
2018-08-17T01:57:16.636Z,100162.15
2018-08-17T01:58:23.052Z,100156.73
2018-08-17T01:59:29.376Z,100157.06
2018-08-17T02:00:35.829Z,100156.22
2018-08-17T02:01:42.116Z,100157.30
2018-08-17T02:02:48.552Z,100156.50
2018-08-17T02:03:54.718Z,100153.13
2018-08-17T02:05:01.250Z,100157.59
2018-08-17T02:06:07.712Z,100159.71
2018-08-17T02:07:14.033Z,100158.11
2018-08-17T02:08:20.842Z,100160.41
2018-08-17T02:09:26.760Z,100163.72
2018-08-17T02:10:32.815Z,100162.02
2018-08-17T02:11:39.439Z,100164.24
2018-08-17T02:12:45.846Z,100167.45
2018-08-17T02:13:52.133Z,100161.59
2018-08-17T02:14:58.489Z,100161.25
2018-08-17T02:16:05.373Z,100158.25
2018-08-17T02:17:11.614Z,100158.50
2018-08-17T02:18:17.533Z,100157.81
2018-08-17T02:19:23.924Z,100155.99
2018-08-17T02:20:30.219Z,100155.53
2018-08-17T02:21:37.429Z,100157.55
2018-08-17T02:22:43.857Z,100160.42
2018-08-17T02:23:49.997Z,100160.13
2018-08-17T02:24:56.307Z,100156.03
2018-08-17T02:26:02.576Z,100157.16
2018-08-17T02:27:08.589Z,100154.59
2018-08-17T02:28:14.579Z,100151.48
2018-08-17T02:29:21.637Z,100153.63
2018-08-17T02:30:28.221Z,100150.03
2018-08-17T02:31:34.716Z,100153.09
2018-08-17T02:32:41.108Z,100150.58
2018-08-17T02:33:47.377Z,100155.00
2018-08-17T02:34:53.720Z,100149.02
2018-08-17T02:35:59.996Z,100149.73
2018-08-17T02:37:06.323Z,100152.05
2018-08-17T02:38:12.716Z,100149.17
2018-08-17T02:39:20.049Z,100149.55
2018-08-17T02:40:26.412Z,100150.38
2018-08-17T02:41:32.360Z,100146.98
2018-08-17T02:42:38.338Z,100146.27
2018-08-17T02:43:44.382Z,100140.84
2018-08-17T02:44:50.753Z,100146.07
2018-08-17T02:45:57.018Z,100145.16
2018-08-17T02:47:03.232Z,100147.44
2018-08-17T02:48:10.459Z,100148.72
2018-08-17T02:49:17.653Z,100147.89
2018-08-17T02:50:24.037Z,100149.89
2018-08-17T02:51:30.316Z,100145.96
2018-08-17T02:52:36.643Z,100146.78
2018-08-17T02:53:42.969Z,100146.23
2018-08-17T02:54:49.288Z,100146.98
2018-08-17T02:55:55.677Z,100147.16
2018-08-17T02:57:01.973Z,100147.61
2018-08-17T02:58:08.640Z,100149.22
2018-08-17T02:59:14.649Z,100152.64
2018-08-17T03:00:20.992Z,100148.91
2018-08-17T03:01:27.176Z,100148.33
2018-08-17T03:02:33.442Z,100148.81
2018-08-17T03:03:39.758Z,100149.98
2018-08-17T03:04:46.197Z,100152.21
2018-08-17T03:05:52.559Z,100154.58
2018-08-17T03:06:58.769Z,100153.68
2018-08-17T03:08:04.993Z,100157.03
2018-08-17T03:09:11.040Z,100161.08
2018-08-17T03:10:17.330Z,100167.02
2018-08-17T03:11:23.685Z,100172.26
2018-08-17T03:12:30.083Z,100171.44
2018-08-17T03:13:36.378Z,100174.91
2018-08-17T03:14:42.673Z,100169.97
2018-08-17T03:15:48.984Z,100175.56
2018-08-17T03:16:55.246Z,100174.01
2018-08-17T03:18:01.848Z,100173.11
2018-08-17T03:19:08.126Z,100174.50
2018-08-17T03:20:14.076Z,100173.94
2018-08-17T03:21:20.338Z,100173.79
2018-08-17T03:22:26.688Z,100171.03
2018-08-17T03:23:32.999Z,100167.69
2018-08-17T03:24:39.286Z,100172.06
2018-08-17T03:25:45.592Z,100173.59
2018-08-17T03:26:52.339Z,100172.09
2018-08-17T03:27:58.748Z,100177.27
2018-08-17T03:29:04.695Z,100180.50
2018-08-17T03:30:10.982Z,100177.55
2018-08-17T03:31:17.256Z,100181.02
2018-08-17T03:32:23.611Z,100185.08
2018-08-17T03:33:30.016Z,100183.45
2018-08-17T03:34:36.425Z,100178.64
2018-08-17T03:35:42.702Z,100180.25
2018-08-17T03:36:49.204Z,100177.17
2018-08-17T03:37:55.496Z,100177.48
2018-08-17T03:39:01.943Z,100182.39
2018-08-17T03:40:08.241Z,100178.52
2018-08-17T03:41:14.505Z,100177.59
2018-08-17T03:42:20.875Z,100177.22
2018-08-17T03:43:27.234Z,100175.96
2018-08-17T03:44:33.510Z,100182.05
2018-08-17T03:45:40.125Z,100178.62
2018-08-17T03:46:46.624Z,100177.98
2018-08-17T03:47:52.785Z,100180.09
2018-08-17T03:48:59.120Z,100185.13
2018-08-17T03:50:04.813Z,100183.27
2018-08-17T03:51:10.900Z,100180.31
2018-08-17T03:52:17.317Z,100183.78
2018-08-17T03:53:23.620Z,100186.61
2018-08-17T03:54:29.929Z,100182.73
2018-08-17T03:55:36.799Z,100190.77
2018-08-17T03:56:43.299Z,100190.09
2018-08-17T03:57:49.688Z,100187.77
2018-08-17T03:58:55.969Z,100191.43
2018-08-17T04:00:01.944Z,100196.23
2018-08-17T04:01:07.987Z,100194.80
2018-08-17T04:02:14.331Z,100199.45
2018-08-17T04:03:20.657Z,100194.16
2018-08-17T04:04:26.588Z,100199.62
2018-08-17T04:05:33.236Z,100204.59
2018-08-17T04:06:39.546Z,100199.63
2018-08-17T04:07:45.750Z,100200.30
2018-08-17T04:08:51.990Z,100199.34
2018-08-17T04:09:58.273Z,100195.97
2018-08-17T04:11:04.625Z,100198.43
2018-08-17T04:12:10.548Z,100192.77
2018-08-17T04:13:16.832Z,100192.53
2018-08-17T04:14:23.168Z,100197.13
2018-08-17T04:15:29.470Z,100194.41
2018-08-17T04:16:35.749Z,100194.95
2018-08-17T04:17:42.084Z,100189.61
2018-08-17T04:18:48.386Z,100193.17
2018-08-17T04:19:54.687Z,100190.39
2018-08-17T04:21:00.988Z,100192.05
2018-08-17T04:22:06.988Z,100191.06
2018-08-17T04:23:13.569Z,100192.06
2018-08-17T04:24:19.983Z,100193.37
2018-08-17T04:25:26.260Z,100190.92
2018-08-17T04:26:32.572Z,100193.39
2018-08-17T04:27:38.865Z,100190.59
2018-08-17T04:28:45.096Z,100195.86
2018-08-17T04:29:51.381Z,100193.04
2018-08-17T04:30:57.714Z,100195.58
2018-08-17T04:32:03.643Z,100191.72
2018-08-17T04:33:09.936Z,100189.03
2018-08-17T04:34:16.548Z,100194.90
2018-08-17T04:35:23.714Z,100198.80
2018-08-17T04:36:30.104Z,100194.47
2018-08-17T04:37:36.404Z,100197.31
2018-08-17T04:38:42.723Z,100197.81
2018-08-17T04:39:48.629Z,100197.58
2018-08-17T04:40:55.023Z,100199.51
2018-08-17T04:42:01.420Z,100198.42
2018-08-17T04:43:07.277Z,100199.52
2018-08-17T04:44:13.587Z,100200.61
2018-08-17T04:45:19.847Z,100204.00
2018-08-17T04:46:26.234Z,100203.31
2018-08-17T04:47:32.703Z,100196.35
2018-08-17T04:48:38.924Z,100205.81
2018-08-17T04:49:45.551Z,100203.68
2018-08-17T04:50:52.033Z,100201.27
2018-08-17T04:51:58.338Z,100204.00
2018-08-17T04:53:04.651Z,100203.81
2018-08-17T04:54:11.076Z,100206.86
2018-08-17T04:55:17.380Z,100207.63
2018-08-17T04:56:23.690Z,100208.42
2018-08-17T04:57:30.004Z,100207.71
2018-08-17T04:58:36.340Z,100214.06
2018-08-17T04:59:43.445Z,100214.09
2018-08-17T05:00:49.784Z,100215.53
2018-08-17T05:01:56.059Z,100216.58
2018-08-17T05:03:02.376Z,100217.67
2018-08-17T05:04:08.704Z,100212.23
2018-08-17T05:05:15.032Z,100215.74
2018-08-17T05:06:21.311Z,100209.80
2018-08-17T05:07:28.043Z,100210.06
2018-08-17T05:08:34.403Z,100209.11
2018-08-17T05:09:40.565Z,100210.55
2018-08-17T05:10:47.540Z,100205.30
2018-08-17T05:11:55.258Z,100211.99
2018-08-17T05:13:02.792Z,100204.45
2018-08-17T05:14:10.354Z,100209.92
2018-08-17T05:15:19.088Z,100212.23
2018-08-17T05:16:27.400Z,100210.09
2018-08-17T05:17:35.162Z,100210.47
2018-08-17T05:18:43.427Z,100211.30
2018-08-17T05:19:51.107Z,100216.48
2018-08-17T05:20:59.138Z,100212.02
2018-08-17T05:22:21.124Z,100211.92
2018-08-17T05:23:37.730Z,100214.11
2018-08-17T05:24:58.167Z,100218.22
2018-08-17T05:26:18.678Z,100213.18
2018-08-17T05:27:44.146Z,100217.05
2018-08-17T05:29:03.055Z,100222.86
2018-08-17T05:30:24.260Z,100227.86
2018-08-17T05:31:48.483Z,100223.02
2018-08-17T05:33:14.495Z,100228.58
2018-08-17T05:34:35.715Z,100225.75
2018-08-17T05:35:49.073Z,100225.27
2018-08-17T05:37:09.144Z,100229.23
2018-08-17T05:38:31.369Z,100229.33
2018-08-17T05:39:49.576Z,100230.80
2018-08-17T05:41:00.722Z,100232.03
2018-08-17T05:42:09.257Z,100232.63
2018-08-17T05:43:16.877Z,100234.28
2018-08-17T05:44:25.046Z,100236.42
2018-08-17T05:45:33.108Z,100238.97
2018-08-17T05:46:40.899Z,100235.41
2018-08-17T05:47:48.936Z,100238.77
2018-08-17T05:49:08.474Z,100238.70
2018-08-17T05:50:26.238Z,100241.59
2018-08-17T05:51:45.597Z,100240.10
2018-08-17T05:53:00.603Z,100240.33
2018-08-17T05:54:19.017Z,100243.68
2018-08-17T05:55:37.216Z,100245.09
2018-08-17T05:56:48.169Z,100242.61
2018-08-17T05:57:56.478Z,100247.09
2018-08-17T05:59:05.310Z,100250.77
2018-08-17T06:00:14.390Z,100249.06
2018-08-17T06:01:21.827Z,100252.92
2018-08-17T06:02:28.855Z,100249.05
2018-08-17T06:03:44.742Z,100253.42
2018-08-17T06:04:55.041Z,100251.02
2018-08-17T06:06:01.380Z,100254.16
2018-08-17T06:07:07.345Z,100255.91
2018-08-17T06:08:13.721Z,100253.86
2018-08-17T06:09:20.127Z,100252.12
2018-08-17T06:10:26.046Z,100257.22
2018-08-17T06:11:32.447Z,100254.02
2018-08-17T06:12:38.752Z,100254.46
2018-08-17T06:13:45.052Z,100258.80
2018-08-17T06:14:51.347Z,100258.06
2018-08-17T06:15:57.680Z,100258.76
2018-08-17T06:17:03.280Z,100255.07
2018-08-17T06:18:08.917Z,100250.86
2018-08-17T06:19:15.199Z,100251.20
2018-08-17T06:20:21.629Z,100252.95
2018-08-17T06:21:27.449Z,100259.09
2018-08-17T06:22:33.830Z,100256.19
2018-08-17T06:23:39.532Z,100262.03
2018-08-17T06:24:45.931Z,100256.12
2018-08-17T06:25:51.928Z,100266.53
2018-08-17T06:26:57.872Z,100265.21
2018-08-17T06:28:03.459Z,100263.67
2018-08-17T06:29:10.024Z,100259.09
2018-08-17T06:30:16.386Z,100268.16
2018-08-17T06:31:22.291Z,100258.70
2018-08-17T06:32:28.691Z,100265.45
2018-08-17T06:33:34.995Z,100265.47
2018-08-17T06:34:41.314Z,100262.44
2018-08-17T06:35:47.266Z,100256.85
2018-08-17T06:36:53.340Z,100264.55
2018-08-17T06:37:59.750Z,100263.93
2018-08-17T06:39:17.904Z,100269.39
2018-08-17T06:40:33.444Z,100262.08
2018-08-17T06:41:51.578Z,100266.64
2018-08-17T06:43:11.635Z,100264.48
2018-08-17T06:44:32.317Z,100267.56
2018-08-17T06:45:48.382Z,100267.59
2018-08-17T06:47:07.788Z,100266.53
2018-08-17T06:48:28.043Z,100263.91
2018-08-17T06:49:52.282Z,100265.66
2018-08-17T06:52:26.632Z,100267.56
2018-08-17T06:53:45.091Z,100266.36
2018-08-17T06:55:07.592Z,100263.61
2018-08-17T06:56:18.473Z,100268.32
2018-08-17T06:57:24.888Z,100269.69
2018-08-17T06:58:31.221Z,100270.45
2018-08-17T06:59:37.520Z,100273.81
2018-08-17T07:00:43.804Z,100265.16
2018-08-17T07:01:50.144Z,100275.56
2018-08-17T07:02:57.034Z,100272.80
2018-08-17T07:04:03.362Z,100272.41
2018-08-17T07:05:09.471Z,100271.14
2018-08-17T07:06:15.800Z,100268.16
2018-08-17T07:07:22.176Z,100266.89
2018-08-17T07:08:33.690Z,100267.41
2018-08-17T07:09:40.366Z,100265.72
2018-08-17T07:10:46.656Z,100264.48
2018-08-17T07:11:52.968Z,100261.95
2018-08-17T07:12:59.314Z,100264.97
2018-08-17T07:14:05.250Z,100269.45
2018-08-17T07:15:11.406Z,100260.47
2018-08-17T07:16:17.841Z,100266.73
2018-08-17T07:17:24.133Z,100271.89
2018-08-17T07:18:30.473Z,100272.52
2018-08-17T07:19:36.885Z,100269.57
2018-08-17T07:20:42.853Z,100268.30
2018-08-17T07:21:49.312Z,100268.92
2018-08-17T07:22:55.572Z,100271.11
2018-08-17T07:24:01.571Z,100269.84
2018-08-17T07:25:08.081Z,100264.86
2018-08-17T07:26:14.485Z,100267.16
2018-08-17T07:27:20.833Z,100269.28
2018-08-17T07:28:27.176Z,100264.19
2018-08-17T07:29:33.470Z,100263.52
2018-08-17T07:30:39.662Z,100266.74
2018-08-17T07:31:45.964Z,100269.85
2018-08-17T07:32:51.845Z,100267.90
2018-08-17T07:33:58.444Z,100269.30
2018-08-17T07:35:04.229Z,100267.12
2018-08-17T07:36:10.747Z,100269.52
2018-08-17T07:37:23.733Z,100273.47
2018-08-17T07:38:41.860Z,100269.18
2018-08-17T07:40:04.567Z,100271.25
2018-08-17T07:41:23.114Z,100271.03
2018-08-17T07:42:33.288Z,100273.84
2018-08-17T07:43:39.633Z,100273.30
2018-08-17T07:44:46.026Z,100269.11
2018-08-17T07:45:51.916Z,100269.27
2018-08-17T07:46:58.183Z,100277.13
2018-08-17T07:48:04.302Z,100275.16
2018-08-17T07:49:10.737Z,100275.45
2018-08-17T07:50:16.824Z,100276.58
2018-08-17T07:51:23.226Z,100272.73
2018-08-17T07:52:29.534Z,100275.77
2018-08-17T07:53:35.936Z,100274.90
2018-08-17T07:54:42.313Z,100277.42
2018-08-17T07:55:48.324Z,100275.45
2018-08-17T07:56:54.681Z,100271.86
2018-08-17T07:58:01.013Z,100275.88
2018-08-17T07:59:07.324Z,100277.75
2018-08-17T08:00:13.571Z,100274.52
2018-08-17T08:01:19.916Z,100267.47
2018-08-17T08:02:26.231Z,100267.52
2018-08-17T08:03:32.689Z,100270.90
2018-08-17T08:04:38.659Z,100268.94
2018-08-17T08:05:45.113Z,100268.30
2018-08-17T08:06:51.577Z,100276.91
2018-08-17T08:07:57.996Z,100270.70
2018-08-17T08:09:03.418Z,100278.81
2018-08-17T08:10:08.947Z,100274.30
2018-08-17T08:11:15.132Z,100272.00
2018-08-17T08:12:21.600Z,100271.50
2018-08-17T08:13:27.953Z,100271.42
2018-08-17T08:14:34.257Z,100274.20
2018-08-17T08:15:40.212Z,100272.80
2018-08-17T08:16:46.659Z,100276.25
2018-08-17T08:17:52.997Z,100271.64
2018-08-17T08:18:59.116Z,100279.20
2018-08-17T08:20:16.555Z,100275.17
2018-08-17T08:21:22.572Z,100284.45
2018-08-17T08:22:28.745Z,100284.38
2018-08-17T08:23:35.097Z,100284.41
2018-08-17T08:24:42.045Z,100283.47
2018-08-17T08:25:49.804Z,100290.30
2018-08-17T08:26:57.857Z,100293.81
2018-08-17T08:28:05.124Z,100288.77
2018-08-17T08:29:12.500Z,100291.00
2018-08-17T08:30:20.793Z,100293.22
2018-08-17T08:31:31.272Z,100288.97
2018-08-17T08:32:38.279Z,100295.78
2018-08-17T08:33:47.554Z,100291.66
2018-08-17T08:34:55.256Z,100291.16
2018-08-17T08:36:03.007Z,100292.03
2018-08-17T08:37:09.988Z,100285.56
2018-08-17T08:38:16.816Z,100299.62
2018-08-17T08:39:23.542Z,100290.86
2018-08-17T08:40:29.978Z,100293.66
2018-08-17T08:41:36.047Z,100298.13
2018-08-17T08:42:41.765Z,100291.49
2018-08-17T08:43:47.658Z,100289.88
2018-08-17T08:44:53.739Z,100291.97
2018-08-17T08:45:59.783Z,100296.62
2018-08-17T08:47:05.394Z,100293.36
2018-08-17T08:48:11.167Z,100300.02
2018-08-17T08:49:17.335Z,100295.81
2018-08-17T08:50:23.190Z,100298.67
2018-08-17T08:51:28.930Z,100299.61
2018-08-17T08:52:35.077Z,100299.17
2018-08-17T08:53:41.101Z,100290.72
2018-08-17T08:54:54.363Z,100296.75
2018-08-17T08:56:11.041Z,100292.56
2018-08-17T08:57:20.972Z,100291.05
2018-08-17T08:58:27.112Z,100303.23
2018-08-17T08:59:32.791Z,100294.36
2018-08-17T09:00:38.461Z,100294.31
2018-08-17T09:01:44.341Z,100294.30
2018-08-17T09:02:50.280Z,100293.06
2018-08-17T09:03:56.730Z,100297.94
2018-08-17T09:05:02.821Z,100292.47
2018-08-17T09:06:08.521Z,100298.34
2018-08-17T09:07:14.612Z,100291.84
2018-08-17T09:08:21.082Z,100299.77
2018-08-17T09:09:27.139Z,100300.64
2018-08-17T09:10:33.115Z,100298.52
2018-08-17T09:11:38.845Z,100298.84
2018-08-17T09:12:44.631Z,100299.13
2018-08-17T09:13:50.768Z,100302.47
2018-08-17T09:14:56.960Z,100292.98
2018-08-17T09:16:02.637Z,100299.31
2018-08-17T09:17:08.472Z,100301.16
2018-08-17T09:18:13.978Z,100300.03
2018-08-17T09:19:19.850Z,100311.02
2018-08-17T09:20:25.746Z,100308.83
2018-08-17T09:21:32.752Z,100310.48
2018-08-17T09:22:39.016Z,100308.73
2018-08-17T09:23:45.204Z,100302.36
2018-08-17T09:24:51.248Z,100310.50
2018-08-17T09:25:57.033Z,100303.28
2018-08-17T09:27:02.835Z,100306.41
2018-08-17T09:28:08.644Z,100309.03
2018-08-17T09:29:14.539Z,100310.13
2018-08-17T09:30:21.425Z,100304.44
2018-08-17T09:31:27.546Z,100311.78
2018-08-17T09:32:34.879Z,100313.09
2018-08-17T09:33:40.730Z,100312.31
2018-08-17T09:34:46.940Z,100314.67
2018-08-17T09:35:53.057Z,100311.91
2018-08-17T09:36:58.871Z,100311.77
2018-08-17T09:38:04.596Z,100311.70
2018-08-17T09:39:10.109Z,100306.98
2018-08-17T09:40:16.088Z,100309.50
2018-08-17T09:41:22.111Z,100308.58
2018-08-17T09:42:28.846Z,100311.47
2018-08-17T09:43:35.185Z,100301.53
2018-08-17T09:44:41.073Z,100301.91
2018-08-17T09:45:47.156Z,100295.73
2018-08-17T09:46:53.596Z,100296.65
2018-08-17T09:47:59.560Z,100296.48
2018-08-17T09:49:05.372Z,100293.23
2018-08-17T09:50:10.381Z,100293.39
2018-08-17T09:51:16.513Z,100295.23
2018-08-17T09:52:22.758Z,100299.25
2018-08-17T09:53:28.864Z,100301.02
2018-08-17T09:54:34.594Z,100295.57
2018-08-17T09:55:40.707Z,100301.16
2018-08-17T09:56:46.827Z,100299.13
2018-08-17T09:57:52.800Z,100294.22
2018-08-17T09:58:58.804Z,100292.27
2018-08-17T10:00:04.145Z,100304.64
2018-08-17T10:01:09.645Z,100295.06
2018-08-17T10:02:29.284Z,100301.22
2018-08-17T10:03:35.710Z,100297.45
2018-08-17T10:04:41.667Z,100298.52
2018-08-17T10:05:47.416Z,100295.94
2018-08-17T10:06:53.482Z,100294.86
2018-08-17T10:08:04.421Z,100293.18
2018-08-17T10:09:10.101Z,100298.72
2018-08-17T10:10:16.337Z,100295.86
2018-08-17T10:11:23.299Z,100296.60
2018-08-17T10:12:28.971Z,100293.20
2018-08-17T10:13:34.725Z,100294.63
2018-08-17T10:14:40.503Z,100292.22
2018-08-17T10:15:46.344Z,100291.59
2018-08-17T10:16:52.308Z,100298.63
2018-08-17T10:17:57.881Z,100300.12
2018-08-17T10:19:04.033Z,100295.05
2018-08-17T10:20:09.218Z,100296.95
2018-08-17T10:21:15.588Z,100302.05
2018-08-17T10:22:21.563Z,100295.95
2018-08-17T10:23:27.444Z,100296.55
2018-08-17T10:24:33.332Z,100303.33
2018-08-17T10:25:39.219Z,100296.05
2018-08-17T10:26:44.324Z,100298.11
2018-08-17T10:27:50.276Z,100303.25
2018-08-17T10:28:55.589Z,100300.94
2018-08-17T10:30:01.479Z,100296.97
2018-08-17T10:31:07.129Z,100302.09
2018-08-17T10:32:12.852Z,100292.58
2018-08-17T10:33:19.245Z,100293.10
2018-08-17T10:34:25.310Z,100296.32
2018-08-17T10:35:31.009Z,100300.52
2018-08-17T10:36:47.619Z,100296.92
2018-08-17T10:37:57.671Z,100298.33
2018-08-17T10:39:03.080Z,100296.41
2018-08-17T10:40:09.002Z,100298.02
2018-08-17T10:41:14.849Z,100301.31
2018-08-17T10:42:20.855Z,100298.11
2018-08-17T10:43:26.524Z,100302.67
2018-08-17T10:44:31.896Z,100301.95
2018-08-17T10:45:37.640Z,100296.72
2018-08-17T10:46:43.428Z,100302.04
2018-08-17T10:47:49.485Z,100298.91
2018-08-17T10:48:55.311Z,100299.74
2018-08-17T10:50:01.054Z,100299.63
2018-08-17T10:51:06.749Z,100298.39
2018-08-17T10:52:12.952Z,100298.39
2018-08-17T10:53:18.632Z,100297.27
2018-08-17T10:54:25.204Z,100294.63
2018-08-17T10:55:30.294Z,100292.88
2018-08-17T10:56:36.700Z,100290.41
2018-08-17T10:57:42.758Z,100288.18
2018-08-17T10:58:48.556Z,100292.98
2018-08-17T10:59:54.280Z,100292.88
2018-08-17T11:01:00.440Z,100294.70
2018-08-17T11:02:06.244Z,100290.42
2018-08-17T11:03:12.072Z,100297.97
2018-08-17T11:04:17.768Z,100288.56
2018-08-17T11:05:23.831Z,100285.09
2018-08-17T11:06:29.694Z,100292.32
2018-08-17T11:07:35.107Z,100294.59
2018-08-17T11:08:40.968Z,100293.54
2018-08-17T11:09:46.798Z,100293.25
2018-08-17T11:10:52.818Z,100291.72
2018-08-17T11:12:00.005Z,100294.39
2018-08-17T11:13:05.649Z,100287.59
2018-08-17T11:14:11.391Z,100291.02
2018-08-17T11:15:17.232Z,100286.23
2018-08-17T11:16:22.956Z,100297.59
2018-08-17T11:17:31.026Z,100300.30
2018-08-17T11:18:37.050Z,100294.42
2018-08-17T11:19:42.881Z,100297.13
2018-08-17T11:20:49.455Z,100295.13
2018-08-17T11:21:55.487Z,100290.66
2018-08-17T11:23:01.207Z,100293.45
2018-08-17T11:24:07.068Z,100291.17
2018-08-17T11:25:12.590Z,100295.05
2018-08-17T11:26:18.901Z,100294.09
2018-08-17T11:27:24.888Z,100299.08
2018-08-17T11:28:30.415Z,100298.23
2018-08-17T11:29:36.075Z,100295.82
2018-08-17T11:30:41.910Z,100289.20
2018-08-17T11:31:47.237Z,100289.19
2018-08-17T11:32:53.612Z,100294.45
2018-08-17T11:33:59.545Z,100296.77
2018-08-17T11:35:04.952Z,100287.55
2018-08-17T11:36:11.673Z,100283.33
2018-08-17T11:37:17.467Z,100289.97
2018-08-17T11:38:23.500Z,100295.28
2018-08-17T11:39:29.197Z,100286.05
2018-08-17T11:40:35.244Z,100294.53
2018-08-17T11:41:41.219Z,100292.67
2018-08-17T11:42:47.245Z,100283.33
2018-08-17T11:43:52.526Z,100290.20
2018-08-17T11:44:58.216Z,100288.98
2018-08-17T11:46:03.553Z,100287.83
2018-08-17T11:47:09.612Z,100292.12
2018-08-17T11:48:14.412Z,100283.60
2018-08-17T11:49:20.247Z,100283.19
2018-08-17T11:50:25.416Z,100286.02
2018-08-17T11:51:31.304Z,100281.15
2018-08-17T11:52:36.840Z,100282.91
2018-08-17T11:53:42.011Z,100287.41
2018-08-17T11:54:48.127Z,100279.95
2018-08-17T11:55:53.730Z,100280.36
2018-08-17T11:56:59.440Z,100278.77
2018-08-17T11:58:05.198Z,100275.93
2018-08-17T11:59:11.136Z,100277.55
2018-08-17T12:00:17.891Z,100279.70
2018-08-17T12:01:23.549Z,100283.34
2018-08-17T12:02:29.391Z,100282.56
2018-08-17T12:03:35.068Z,100278.73
2018-08-17T12:04:40.512Z,100282.32
2018-08-17T12:05:46.478Z,100281.72
2018-08-17T12:06:52.271Z,100284.35
2018-08-17T12:07:58.089Z,100278.84
2018-08-17T12:09:03.288Z,100278.61
2018-08-17T12:10:08.388Z,100282.45
2018-08-17T12:11:14.021Z,100279.56
2018-08-17T12:12:19.900Z,100282.92
2018-08-17T12:13:25.693Z,100282.64
2018-08-17T12:14:31.541Z,100284.09
2018-08-17T12:15:37.034Z,100282.52
2018-08-17T12:16:43.380Z,100279.36
2018-08-17T12:17:49.283Z,100281.95
2018-08-17T12:18:55.742Z,100277.95
2018-08-17T12:20:01.595Z,100286.03
2018-08-17T12:21:07.401Z,100286.25
2018-08-17T12:22:13.202Z,100281.27
2018-08-17T12:23:18.874Z,100282.34
2018-08-17T12:24:24.799Z,100282.66
2018-08-17T12:25:30.698Z,100285.66
2018-08-17T12:26:36.148Z,100286.45
2018-08-17T12:27:41.357Z,100284.66
2018-08-17T12:28:47.271Z,100286.40
2018-08-17T12:29:53.061Z,100280.21
2018-08-17T12:30:58.445Z,100282.23
2018-08-17T12:32:04.141Z,100271.83
2018-08-17T12:33:10.380Z,100282.08
2018-08-17T12:34:16.773Z,100283.16
2018-08-17T12:35:22.185Z,100285.20
2018-08-17T12:36:27.871Z,100282.07
2018-08-17T12:37:33.663Z,100279.29
2018-08-17T12:38:39.980Z,100280.22
2018-08-17T12:39:45.900Z,100275.80
2018-08-17T12:40:51.918Z,100281.27
2018-08-17T12:41:57.679Z,100286.81
2018-08-17T12:43:03.480Z,100281.95
2018-08-17T12:44:09.168Z,100282.32
2018-08-17T12:45:14.641Z,100276.96
2018-08-17T12:46:20.396Z,100276.83